This is the latest recevied weather packets stored in our database for station/object DL9TPA-1. If no packets are shown the sender has not sent any weather packets the latest 1 day(s).
| Time | Temp. | Humidity | Pressure | Rain* | Wind** | Luminosity | Snow |
|---|---|---|---|---|---|---|---|
| 1778110249 | 11.11° C | 97% | 1005.8 hPa | 0 mm | - | - | - |
| 1778107240 | 11.11° C | 96% | 1005.7 hPa | 0 mm | - | - | - |
| 1778104228 | 11.11° C | 95% | 1005.9 hPa | 3.05 mm | - | - | - |
| 1778102423 | 12.22° C | 91% | 1005.5 hPa | 3.3 mm | - | - | - |
| 1778101822 | 12.78° C | 89% | 1005.6 hPa | 3.3 mm | - | - | - |
| 1778100017 | 14.44° C | 86% | 1005.8 hPa | 0.25 mm | - | - | - |
| 1778099413 | 14.44° C | 86% | 1005.7 hPa | 0 mm | - | - | - |
| 1778095499 | 15.56° C | 82% | 1004.5 hPa | 0 mm | - | - | - |
| 1778091889 | 18.33° C | 68% | 1003.8 hPa | 0 mm | - | - | - |
| 1778090683 | 18.89° C | 58% | 1003.5 hPa | 0 mm | - | - | - |
| 1778087673 | 19.44° C | 57% | 1003.3 hPa | 0 mm | - | - | - |
| 1778086470 | 19.44° C | 57% | 1003.2 hPa | 0 mm | - | - | - |
| 1778084664 | 19.44° C | 55% | 1003.3 hPa | 0 mm | - | - | - |
| 1778084061 | 19.44° C | 54% | 1003.5 hPa | 0 mm | - | - | - |
| 1778082858 | 20.56° C | 53% | 1003.8 hPa | 0 mm | - | - | - |
| 1778079245 | 22.22° C | 52% | 1004.1 hPa | 0 mm | - | - | - |
| 1778076837 | 22.22° C | 51% | 1004.3 hPa | 0 mm | - | - | - |
| 1778075633 | 22.78° C | 51% | 1004.3 hPa | 0 mm | - | - | - |
| 1778073830 | 22.78° C | 51% | 1004.3 hPa | 0 mm | - | - | - |
| 1778071419 | 23.89° C | 53% | 1004.6 hPa | 0 mm | - | - | - |
| 1778069614 | 23.89° C | 53% | 1004.6 hPa | 0 mm | - | - | - |
| 1778069011 | 23.89° C | 53% | 1004.6 hPa | 0 mm | - | - | - |
| 1778068410 | 23.89° C | 53% | 1004.6 hPa | 0 mm | - | - | - |
| 1778065399 | 18.89° C | 90% | 1003.9 hPa | 0 mm | - | - | - |
| 1778064797 | 18.89° C | 90% | 1003.9 hPa | 0 mm | - | - | - |
* Rain latest hour (hover to see other rain measurements)
** Current wind speed in m/s (hover to see current wind gust speed)